createdAt,value
2019-05-22T00:01:40.314Z,90.33
2019-05-22T00:04:51.137Z,90.03
2019-05-22T00:07:55.881Z,89.99
2019-05-22T00:11:01.769Z,90.21
2019-05-22T00:14:07.239Z,89.59
2019-05-22T00:17:15.259Z,89.38
2019-05-22T00:20:22.377Z,89.02
2019-05-22T00:23:27.440Z,89.58
2019-05-22T00:26:31.511Z,89.66
2019-05-22T00:29:35.343Z,89.43
2019-05-22T00:32:39.802Z,89.31
2019-05-22T00:35:44.975Z,89.44
2019-05-22T00:38:51.257Z,89.51
2019-05-22T00:41:55.598Z,89.69
2019-05-22T00:44:59.977Z,89.61
2019-05-22T00:48:04.950Z,89.36
2019-05-22T00:51:28.918Z,89.68
2019-05-22T00:54:40.654Z,89.65
2019-05-22T00:57:50.505Z,89.69
2019-05-22T01:01:01.170Z,89.07
2019-05-22T01:04:06.194Z,89.48
2019-05-22T01:07:17.627Z,89.11
2019-05-22T01:10:25.808Z,89.31
2019-05-22T01:13:32.884Z,89.47
2019-05-22T01:16:37.179Z,89.31
2019-05-22T01:19:42.536Z,89.06
2019-05-22T01:22:48.617Z,88.47
2019-05-22T01:25:52.513Z,88.69
2019-05-22T01:28:56.816Z,88.38
2019-05-22T01:32:08.539Z,88.59
2019-05-22T01:35:13.781Z,88.65
2019-05-22T01:38:18.889Z,88.76
2019-05-22T01:41:30.283Z,88.24
2019-05-22T01:44:34.509Z,88.32
2019-05-22T01:48:05.470Z,88.62
2019-05-22T01:51:12.011Z,89.02
2019-05-22T01:54:18.177Z,89.06
2019-05-22T01:57:22.754Z,88.70
2019-05-22T02:00:28.514Z,88.65
2019-05-22T02:03:34.251Z,88.68
2019-05-22T02:06:39.134Z,88.75
2019-05-22T02:09:43.751Z,88.85
2019-05-22T02:12:54.841Z,88.28
2019-05-22T02:15:59.094Z,88.21
2019-05-22T02:19:05.079Z,88.48
2019-05-22T02:22:11.040Z,88.40
2019-05-22T02:25:15.600Z,88.91
2019-05-22T02:28:21.531Z,87.96
2019-05-22T02:31:28.696Z,87.55
2019-05-22T02:34:32.460Z,87.94
2019-05-22T02:37:36.977Z,88.37
2019-05-22T02:40:43.960Z,87.82
2019-05-22T02:43:48.110Z,87.76
2019-05-22T02:46:53.049Z,88.34
2019-05-22T02:49:58.163Z,88.77
2019-05-22T02:53:03.341Z,88.31
2019-05-22T02:56:07.229Z,88.29
2019-05-22T02:59:13.035Z,88.67
2019-05-22T03:02:18.094Z,88.20
2019-05-22T03:05:24.961Z,88.36
2019-05-22T03:08:46.136Z,88.28
2019-05-22T03:11:57.719Z,88.27
2019-05-22T03:15:04.067Z,88.17
2019-05-22T03:18:08.633Z,88.31
2019-05-22T03:21:13.695Z,88.20
2019-05-22T03:24:17.780Z,88.57
2019-05-22T03:27:38.653Z,88.37
2019-05-22T03:30:44.012Z,87.97
2019-05-22T03:33:48.301Z,88.15
2019-05-22T03:36:53.557Z,87.92
2019-05-22T03:39:57.294Z,88.25
2019-05-22T03:43:05.679Z,87.66
2019-05-22T03:46:44.005Z,87.83
2019-05-22T03:49:49.559Z,88.09
2019-05-22T03:52:55.105Z,88.14
2019-05-22T03:55:58.830Z,88.37
2019-05-22T03:59:03.600Z,88.40
2019-05-22T04:02:09.655Z,88.37
2019-05-22T04:05:14.796Z,88.01
2019-05-22T04:08:21.470Z,87.91
2019-05-22T04:11:28.730Z,88.08
2019-05-22T04:14:37.782Z,88.17
2019-05-22T04:17:44.990Z,88.13
2019-05-22T04:20:48.985Z,87.68
2019-05-22T04:23:52.878Z,87.79
2019-05-22T04:26:57.327Z,88.28
2019-05-22T04:30:01.522Z,88.35
2019-05-22T04:33:05.316Z,87.55
2019-05-22T04:36:10.454Z,87.58
2019-05-22T04:39:24.044Z,87.88
2019-05-22T04:42:29.218Z,88.47
2019-05-22T04:45:32.933Z,87.60
2019-05-22T04:48:37.867Z,87.99
2019-05-22T04:51:42.050Z,88.02
2019-05-22T04:54:45.752Z,87.01
2019-05-22T04:57:50.340Z,87.46
2019-05-22T05:00:55.119Z,87.72
2019-05-22T05:04:00.018Z,87.37
2019-05-22T05:07:07.267Z,87.89
2019-05-22T05:10:11.931Z,88.02
2019-05-22T05:13:16.424Z,87.95
2019-05-22T05:16:20.469Z,88.44
2019-05-22T05:19:24.637Z,88.33
2019-05-22T05:22:44.179Z,88.13
2019-05-22T05:25:48.040Z,88.27
2019-05-22T05:28:52.413Z,88.39
2019-05-22T05:31:56.848Z,88.63
2019-05-22T05:35:05.766Z,88.42
2019-05-22T05:38:10.899Z,88.44
2019-05-22T05:41:15.348Z,87.55
2019-05-22T05:44:19.359Z,87.08
2019-05-22T05:47:23.926Z,87.95
2019-05-22T05:50:39.062Z,88.73
2019-05-22T05:53:42.123Z,88.49
2019-05-22T05:56:48.379Z,88.32
2019-05-22T05:59:52.361Z,88.19
2019-05-22T06:03:01.205Z,88.15
2019-05-22T06:06:47.886Z,88.10
2019-05-22T06:10:39.464Z,87.45
2019-05-22T06:13:43.679Z,87.46
2019-05-22T06:17:28.879Z,87.07
2019-05-22T06:20:33.261Z,87.25
2019-05-22T06:24:15.308Z,87.42
2019-05-22T06:27:41.773Z,87.50
2019-05-22T06:30:47.558Z,87.38
2019-05-22T06:33:51.600Z,87.66
2019-05-22T06:36:58.783Z,87.93
2019-05-22T06:40:02.592Z,87.69
2019-05-22T06:44:01.271Z,87.73
2019-05-22T06:47:08.311Z,87.46
2019-05-22T06:50:12.426Z,87.62
2019-05-22T06:53:16.579Z,87.24
2019-05-22T06:56:23.772Z,87.35
2019-05-22T06:59:25.960Z,87.16
2019-05-22T07:02:35.483Z,86.88
2019-05-22T07:05:39.724Z,86.86
2019-05-22T07:08:43.719Z,87.42
2019-05-22T07:11:47.436Z,87.39
2019-05-22T07:15:31.164Z,87.23
2019-05-22T07:18:35.005Z,87.24
2019-05-22T07:21:39.551Z,86.95
2019-05-22T07:24:43.824Z,87.55
2019-05-22T07:27:48.710Z,87.03
2019-05-22T07:30:53.667Z,87.23
2019-05-22T07:33:58.099Z,87.19
2019-05-22T07:37:03.170Z,87.76
2019-05-22T07:40:07.846Z,87.41
2019-05-22T07:43:11.833Z,87.56
2019-05-22T07:46:15.610Z,87.42
2019-05-22T07:49:21.073Z,87.31
2019-05-22T07:52:25.376Z,87.20
2019-05-22T07:55:32.168Z,87.00
2019-05-22T07:58:36.211Z,87.34
2019-05-22T08:01:40.406Z,86.72
2019-05-22T08:04:45.765Z,86.71
2019-05-22T08:07:51.414Z,87.23
2019-05-22T08:10:57.136Z,86.58
2019-05-22T08:14:01.310Z,86.81
2019-05-22T08:17:08.404Z,86.74
2019-05-22T08:20:12.829Z,86.58
2019-05-22T08:23:17.713Z,86.35
2019-05-22T08:26:23.546Z,86.60
2019-05-22T08:29:27.871Z,86.86
2019-05-22T08:32:32.954Z,86.74
2019-05-22T08:35:37.143Z,86.45
2019-05-22T08:38:43.771Z,86.28
2019-05-22T08:41:47.740Z,86.54
2019-05-22T08:44:51.821Z,86.55
2019-05-22T08:47:56.236Z,86.46
2019-05-22T08:51:01.213Z,86.00
2019-05-22T08:54:06.570Z,85.59
2019-05-22T08:57:12.410Z,85.29
2019-05-22T09:00:18.116Z,84.13
2019-05-22T09:03:22.203Z,84.48
2019-05-22T09:06:26.181Z,83.70
2019-05-22T09:09:29.887Z,84.45
2019-05-22T09:12:34.330Z,83.28
2019-05-22T09:15:40.457Z,84.07
2019-05-22T09:18:44.375Z,83.03
2019-05-22T09:21:48.858Z,82.66
2019-05-22T09:24:53.038Z,82.83
2019-05-22T09:27:57.317Z,83.14
2019-05-22T09:31:01.116Z,83.24
2019-05-22T09:34:04.984Z,81.82
2019-05-22T09:37:08.762Z,82.51
2019-05-22T09:40:13.198Z,83.54
2019-05-22T09:43:17.416Z,83.73
2019-05-22T09:46:22.414Z,83.94
2019-05-22T09:49:26.593Z,83.17
2019-05-22T09:52:30.956Z,83.26
2019-05-22T09:55:35.837Z,83.88
2019-05-22T09:58:40.042Z,83.45
2019-05-22T10:01:43.957Z,83.32
2019-05-22T10:04:47.998Z,82.38
2019-05-22T10:08:00.736Z,82.66
2019-05-22T10:10:58.763Z,81.35
2019-05-22T10:14:03.088Z,81.66
2019-05-22T10:17:08.733Z,81.63
2019-05-22T10:20:13.846Z,81.94
2019-05-22T10:23:18.793Z,81.84
2019-05-22T10:26:23.058Z,81.92
2019-05-22T10:29:27.404Z,82.24
2019-05-22T10:32:32.568Z,82.46
2019-05-22T10:35:37.258Z,81.59
2019-05-22T10:38:41.232Z,81.36
2019-05-22T10:41:45.009Z,81.40
2019-05-22T10:44:49.957Z,80.94
2019-05-22T10:47:53.840Z,80.56
2019-05-22T10:50:57.542Z,80.79
2019-05-22T10:54:01.390Z,81.12
2019-05-22T10:57:05.722Z,79.50
2019-05-22T11:00:12.914Z,78.64
2019-05-22T11:03:17.936Z,78.93
2019-05-22T11:06:22.479Z,78.93
2019-05-22T11:09:27.317Z,78.85
2019-05-22T11:12:32.002Z,78.07
2019-05-22T11:15:35.803Z,79.17
2019-05-22T11:18:41.059Z,76.34
2019-05-22T11:21:45.496Z,76.92
2019-05-22T11:24:49.698Z,77.19
2019-05-22T11:27:54.542Z,75.96
2019-05-22T11:30:58.570Z,75.61
2019-05-22T11:34:02.371Z,76.14
2019-05-22T11:37:06.723Z,75.20
2019-05-22T11:40:12.356Z,74.71
2019-05-22T11:43:16.242Z,76.56
2019-05-22T11:46:20.360Z,74.34
2019-05-22T11:49:24.690Z,75.29
2019-05-22T11:52:29.853Z,74.94
2019-05-22T11:55:45.130Z,76.07
2019-05-22T11:58:39.423Z,75.04
2019-05-22T12:01:44.039Z,74.12
2019-05-22T12:04:49.018Z,74.16
2019-05-22T12:07:54.381Z,74.95
2019-05-22T12:10:59.041Z,74.78
2019-05-22T12:14:03.342Z,74.48
2019-05-22T12:17:07.691Z,73.62
2019-05-22T12:20:13.353Z,74.33
2019-05-22T12:23:17.366Z,73.74
2019-05-22T12:26:21.817Z,72.95
2019-05-22T12:29:25.795Z,71.68
2019-05-22T12:32:31.250Z,71.84
2019-05-22T12:35:35.100Z,72.28
2019-05-22T12:38:39.446Z,69.61
2019-05-22T12:41:45.766Z,70.58
2019-05-22T12:44:49.574Z,69.50
2019-05-22T12:47:54.164Z,70.33
2019-05-22T12:50:58.616Z,70.97
2019-05-22T12:54:03.002Z,69.87
2019-05-22T12:57:06.987Z,68.25
2019-05-22T13:00:11.085Z,67.90
2019-05-22T13:03:15.586Z,68.92
2019-05-22T13:06:20.215Z,69.78
2019-05-22T13:09:24.185Z,70.70
2019-05-22T13:12:28.042Z,70.29
2019-05-22T13:15:32.912Z,67.51
2019-05-22T13:18:37.249Z,67.72
2019-05-22T13:21:42.263Z,68.24
2019-05-22T13:24:46.515Z,68.89
2019-05-22T13:27:53.304Z,70.49
2019-05-22T13:30:58.152Z,67.81
2019-05-22T13:34:03.704Z,68.58
2019-05-22T13:37:10.051Z,68.86
2019-05-22T13:40:27.080Z,69.19
2019-05-22T13:43:20.577Z,70.74
2019-05-22T13:46:24.542Z,69.89
2019-05-22T13:49:30.430Z,70.73
2019-05-22T13:52:35.288Z,69.80
2019-05-22T13:55:40.096Z,70.73
2019-05-22T13:58:44.455Z,69.77
2019-05-22T14:01:48.239Z,70.36
2019-05-22T14:04:52.125Z,69.63
2019-05-22T14:07:55.832Z,68.88
2019-05-22T14:11:00.217Z,67.04
2019-05-22T14:14:04.352Z,66.25
2019-05-22T14:17:08.307Z,65.63
2019-05-22T14:20:15.880Z,64.97
2019-05-22T14:23:20.232Z,64.77
2019-05-22T14:26:24.552Z,62.27
2019-05-22T14:29:28.800Z,61.48
2019-05-22T14:32:32.985Z,61.92
2019-05-22T14:35:48.266Z,61.33
2019-05-22T14:38:46.392Z,61.57
2019-05-22T14:41:50.216Z,61.70
2019-05-22T14:44:54.290Z,62.69
2019-05-22T14:47:58.340Z,62.69
2019-05-22T14:51:02.206Z,62.40
2019-05-22T14:54:07.985Z,62.56
2019-05-22T14:57:12.211Z,63.86
2019-05-22T15:00:17.698Z,61.26
2019-05-22T15:03:21.473Z,63.12
2019-05-22T15:06:26.005Z,63.22
2019-05-22T15:09:30.024Z,63.67
2019-05-22T15:12:34.041Z,63.67
2019-05-22T15:15:40.642Z,65.43
2019-05-22T15:18:43.875Z,63.59
2019-05-22T15:21:48.066Z,63.59
2019-05-22T15:24:53.538Z,64.88
2019-05-22T15:27:57.809Z,63.23
2019-05-22T15:31:03.428Z,62.73
2019-05-22T15:34:08.240Z,63.11
2019-05-22T15:37:13.553Z,64.39
2019-05-22T15:40:19.191Z,63.65
2019-05-22T15:43:24.729Z,64.18
2019-05-22T15:46:29.056Z,62.78
2019-05-22T15:49:34.060Z,62.08
2019-05-22T15:52:39.812Z,62.08
2019-05-22T15:55:45.941Z,61.89
2019-05-22T15:58:53.938Z,62.38
2019-05-22T16:01:59.409Z,62.68
2019-05-22T16:05:05.759Z,63.17
2019-05-22T16:08:10.769Z,63.17
2019-05-22T16:11:16.858Z,62.26
2019-05-22T16:14:21.889Z,63.12
2019-05-22T16:17:28.778Z,63.45
2019-05-22T16:20:33.517Z,62.84
2019-05-22T16:23:38.325Z,63.29
2019-05-22T16:26:42.660Z,64.72
2019-05-22T16:29:46.764Z,63.62
2019-05-22T16:32:50.966Z,62.88
2019-05-22T16:35:55.174Z,64.72
2019-05-22T16:38:59.618Z,63.44
2019-05-22T16:42:04.279Z,64.02
2019-05-22T16:45:09.280Z,63.73
2019-05-22T16:48:28.383Z,63.87
2019-05-22T16:51:21.538Z,65.93
2019-05-22T16:54:26.552Z,65.46
2019-05-22T16:57:31.392Z,66.27
2019-05-22T17:00:36.269Z,65.09
2019-05-22T17:03:40.303Z,63.73
2019-05-22T17:06:44.346Z,62.33
2019-05-22T17:09:49.492Z,63.70
2019-05-22T17:12:54.744Z,63.77
2019-05-22T17:15:59.752Z,66.06
2019-05-22T17:19:23.816Z,66.13
2019-05-22T17:22:11.355Z,66.27
2019-05-22T17:25:16.952Z,66.16
2019-05-22T17:28:20.925Z,65.93
2019-05-22T17:31:26.801Z,65.32
2019-05-22T17:34:37.127Z,65.68
2019-05-22T17:37:42.107Z,65.96
2019-05-22T17:40:47.011Z,65.10
2019-05-22T17:43:50.995Z,65.16
2019-05-22T17:46:55.873Z,66.26
2019-05-22T17:50:01.508Z,67.03
2019-05-22T17:53:05.994Z,67.49
2019-05-22T17:56:10.046Z,66.75
2019-05-22T17:59:14.581Z,68.06
2019-05-22T18:02:20.869Z,66.76
2019-05-22T18:05:27.091Z,68.94
2019-05-22T18:08:31.068Z,68.35
2019-05-22T18:11:34.768Z,68.02
2019-05-22T18:14:38.837Z,68.21
2019-05-22T18:17:42.577Z,68.48
2019-05-22T18:20:46.860Z,67.76
2019-05-22T18:23:50.930Z,67.76
2019-05-22T18:26:54.700Z,68.83
2019-05-22T18:29:58.759Z,68.88
2019-05-22T18:33:02.828Z,69.45
2019-05-22T18:36:06.634Z,70.29
2019-05-22T18:39:12.080Z,70.47
2019-05-22T18:42:15.832Z,70.62
2019-05-22T18:45:21.358Z,71.62
2019-05-22T18:48:25.288Z,70.07
2019-05-22T18:51:29.760Z,70.40
2019-05-22T18:54:33.547Z,71.18
2019-05-22T18:57:37.637Z,70.43
2019-05-22T19:00:41.654Z,71.66
2019-05-22T19:03:45.430Z,71.37
2019-05-22T19:06:49.484Z,71.17
2019-05-22T19:09:53.216Z,72.20
2019-05-22T19:12:57.733Z,71.45
2019-05-22T19:16:01.449Z,73.06
2019-05-22T19:19:05.627Z,72.03
2019-05-22T19:22:09.450Z,71.74
2019-05-22T19:25:13.702Z,73.89
2019-05-22T19:28:17.635Z,74.59
2019-05-22T19:31:21.526Z,73.86
2019-05-22T19:34:25.226Z,74.84
2019-05-22T19:37:29.576Z,74.18
2019-05-22T19:40:33.796Z,75.15
2019-05-22T19:43:37.663Z,74.83
2019-05-22T19:46:41.479Z,75.69
2019-05-22T19:49:45.345Z,75.77
2019-05-22T19:52:49.243Z,75.64
2019-05-22T19:55:53.726Z,75.30
2019-05-22T19:58:58.559Z,74.26
2019-05-22T20:02:04.074Z,75.62
2019-05-22T20:05:09.100Z,77.15
2019-05-22T20:08:13.124Z,77.59
2019-05-22T20:11:16.900Z,76.95
2019-05-22T20:14:20.975Z,77.63
2019-05-22T20:17:24.678Z,77.96
2019-05-22T20:20:29.090Z,78.50
2019-05-22T20:23:36.472Z,78.10
2019-05-22T20:26:39.064Z,78.91
2019-05-22T20:29:43.308Z,78.95
2019-05-22T20:32:47.588Z,78.41
2019-05-22T20:35:51.296Z,78.87
2019-05-22T20:38:55.001Z,78.70
2019-05-22T20:41:59.208Z,78.81
2019-05-22T20:45:03.491Z,78.85
2019-05-22T20:48:12.170Z,79.62
2019-05-22T20:51:16.879Z,79.35
2019-05-22T20:54:21.152Z,79.82
2019-05-22T20:57:26.556Z,79.75
2019-05-22T21:00:31.827Z,80.24
2019-05-22T21:03:36.752Z,80.03
2019-05-22T21:06:48.556Z,80.24
2019-05-22T21:09:52.845Z,80.25
2019-05-22T21:12:57.555Z,80.05
2019-05-22T21:16:03.087Z,80.32
2019-05-22T21:19:07.954Z,80.54
2019-05-22T21:22:14.319Z,80.63
2019-05-22T21:25:18.322Z,80.67
2019-05-22T21:28:22.572Z,80.52
2019-05-22T21:31:27.092Z,81.14
2019-05-22T21:34:31.352Z,81.29
2019-05-22T21:37:35.324Z,81.15
2019-05-22T21:40:39.752Z,81.23
2019-05-22T21:43:44.099Z,81.31
2019-05-22T21:46:48.104Z,81.33
2019-05-22T21:49:52.369Z,81.24
2019-05-22T21:52:56.526Z,81.57
2019-05-22T21:56:05.114Z,81.49
2019-05-22T21:59:07.169Z,81.74
2019-05-22T22:02:15.870Z,81.72
2019-05-22T22:05:20.808Z,81.70
2019-05-22T22:08:25.143Z,81.92
2019-05-22T22:11:29.544Z,81.68
2019-05-22T22:14:33.667Z,81.27
2019-05-22T22:17:37.306Z,81.74
2019-05-22T22:20:41.745Z,81.96
2019-05-22T22:23:47.076Z,82.00
2019-05-22T22:26:51.442Z,81.87
2019-05-22T22:29:55.659Z,82.02
2019-05-22T22:33:02.106Z,82.26
2019-05-22T22:36:08.406Z,81.95
2019-05-22T22:39:14.766Z,82.23
2019-05-22T22:42:22.109Z,82.28
2019-05-22T22:45:37.052Z,82.18
2019-05-22T22:48:41.936Z,82.57
2019-05-22T22:51:48.943Z,82.35
2019-05-22T22:54:52.646Z,82.41
2019-05-22T22:57:56.712Z,82.40
2019-05-22T23:01:03.204Z,82.57
2019-05-22T23:04:10.133Z,82.39
2019-05-22T23:07:17.270Z,82.45
2019-05-22T23:10:23.053Z,82.47
2019-05-22T23:13:27.862Z,82.69
2019-05-22T23:16:32.510Z,82.69
2019-05-22T23:19:35.832Z,82.77
2019-05-22T23:22:40.120Z,82.61
2019-05-22T23:25:44.135Z,83.08
2019-05-22T23:28:47.927Z,82.91
2019-05-22T23:31:53.693Z,83.01
2019-05-22T23:34:59.414Z,83.15
2019-05-22T23:38:03.982Z,83.03
2019-05-22T23:41:08.202Z,83.25
2019-05-22T23:44:14.383Z,83.35
2019-05-22T23:47:18.949Z,83.17
2019-05-22T23:50:23.201Z,83.02
2019-05-22T23:53:28.266Z,83.13
2019-05-22T23:56:33.607Z,83.00
2019-05-22T23:59:39.823Z,83.15
